This is the latest recevied weather packets stored in our database for station/object F4GQK-13. If no packets are shown the sender has not sent any weather packets the latest 10 day(s).
| Time | Temp. | Humidity | Pressure | Rain* | Wind** | Luminosity | Snow |
|---|---|---|---|---|---|---|---|
| 1777651505 | 22.78° C | 68% | 1020.8 hPa | 0.51 mm | - | 340 W/m² | - |
| 1777651205 | 22.78° C | 72% | 1020.7 hPa | 0.51 mm | - | 558 W/m² | - |
| 1777650905 | 22.78° C | 75% | 1020.6 hPa | 0.51 mm | - | 540 W/m² | - |
| 1777650605 | 23.89° C | 71% | 1020.9 hPa | 0.25 mm | - | 524 W/m² | - |
| 1777650305 | 25° C | 57% | 1020.8 hPa | 0 mm | - | 241 W/m² | - |
| 1777650005 | 25° C | 57% | 1020.8 hPa | 0 mm | - | 197 W/m² | - |
| 1777649705 | 25° C | 54% | 1020.8 hPa | 0 mm | - | 455 W/m² | - |
| 1777649405 | 25.56° C | 54% | 1021.1 hPa | 0 mm | - | 334 W/m² | - |
| 1777649105 | 25.56° C | 53% | 1021.3 hPa | 0 mm | - | 529 W/m² | - |
| 1777648805 | 25° C | 54% | 1021 hPa | 0 mm | - | 569 W/m² | - |
| 1777648505 | 25° C | 55% | 1021 hPa | 0 mm | - | 603 W/m² | - |
| 1777648204 | 25.56° C | 53% | 1021.2 hPa | 0 mm | - | 250 W/m² | - |
| 1777647904 | 23.89° C | 58% | 1021.2 hPa | 0 mm | - | 557 W/m² | - |
| 1777647605 | 24.44° C | 56% | 1021.3 hPa | 0 mm | - | 161 W/m² | - |
| 1777647305 | 24.44° C | 56% | 1021.4 hPa | 0 mm | - | 114 W/m² | - |
| 1777647005 | 24.44° C | 55% | 1021.2 hPa | 0 mm | - | 79 W/m² | - |
| 1777646705 | 24.44° C | 54% | 1021.3 hPa | 0 mm | - | 127 W/m² | - |
| 1777646406 | 25° C | 54% | 1021.4 hPa | 0 mm | - | 120 W/m² | - |
| 1777646105 | 25° C | 55% | 1021.6 hPa | 0 mm | - | 99 W/m² | - |
| 1777645804 | 25° C | 56% | 1021.2 hPa | 0 mm | - | 181 W/m² | - |
| 1777645505 | 25.56° C | 53% | 1021.5 hPa | 0 mm | - | 143 W/m² | - |
| 1777645205 | 26.11° C | 52% | 1021.6 hPa | 0 mm | - | 182 W/m² | - |
| 1777644905 | 27.22° C | 51% | 1021.4 hPa | 0 mm | - | 214 W/m² | - |
| 1777644605 | 27.22° C | 50% | 1021.6 hPa | 0 mm | - | 722 W/m² | - |
| 1777644305 | 27.22° C | 50% | 1021.6 hPa | 0 mm | - | 748 W/m² | - |
* Rain latest hour (hover to see other rain measurements)
** Current wind speed in m/s (hover to see current wind gust speed)